sensor_id;sensor_type;location;lat;lon;timestamp;pressure;altitude;pressure_sealevel;temperature;humidity
27984;BME280;15317;50.360;8.726;2024-01-15T00:04:08;98225.47;;;-2.26;100.00
27984;BME280;15317;50.360;8.726;2024-01-15T00:09:11;98223.53;;;-2.24;100.00
27984;BME280;15317;50.360;8.726;2024-01-15T00:14:16;98220.25;;;-2.27;100.00
27984;BME280;15317;50.360;8.726;2024-01-15T00:19:22;98203.28;;;-2.14;100.00
27984;BME280;15317;50.360;8.726;2024-01-15T00:24:26;98194.22;;;-1.87;100.00
27984;BME280;15317;50.360;8.726;2024-01-15T00:29:30;98190.47;;;-1.61;100.00
27984;BME280;15317;50.360;8.726;2024-01-15T00:34:33;98202.50;;;-1.44;100.00
27984;BME280;15317;50.360;8.726;2024-01-15T00:39:37;98195.94;;;-1.16;100.00
27984;BME280;15317;50.360;8.726;2024-01-15T00:44:42;98191.19;;;-1.13;100.00
27984;BME280;15317;50.360;8.726;2024-01-15T00:49:45;98192.03;;;-1.01;100.00
27984;BME280;15317;50.360;8.726;2024-01-15T00:54:48;98189.16;;;-0.98;100.00
27984;BME280;15317;50.360;8.726;2024-01-15T00:59:53;98180.56;;;-0.91;100.00
27984;BME280;15317;50.360;8.726;2024-01-15T01:04:56;98167.94;;;-0.89;100.00
27984;BME280;15317;50.360;8.726;2024-01-15T01:09:59;98158.63;;;-0.94;100.00
27984;BME280;15317;50.360;8.726;2024-01-15T01:15:05;98159.22;;;-1.02;100.00
27984;BME280;15317;50.360;8.726;2024-01-15T01:20:08;98153.19;;;-1.04;100.00
27984;BME280;15317;50.360;8.726;2024-01-15T01:25:15;98150.88;;;-0.97;100.00
27984;BME280;15317;50.360;8.726;2024-01-15T01:30:20;98143.38;;;-0.92;100.00
27984;BME280;15317;50.360;8.726;2024-01-15T01:35:23;98134.41;;;-0.80;100.00
27984;BME280;15317;50.360;8.726;2024-01-15T01:40:27;98146.50;;;-0.65;100.00
27984;BME280;15317;50.360;8.726;2024-01-15T01:45:31;98144.56;;;-0.63;100.00
27984;BME280;15317;50.360;8.726;2024-01-15T01:50:34;98145.53;;;-0.64;100.00
27984;BME280;15317;50.360;8.726;2024-01-15T01:55:38;98151.47;;;-0.60;100.00
27984;BME280;15317;50.360;8.726;2024-01-15T02:00:43;98140.41;;;-0.45;100.00
27984;BME280;15317;50.360;8.726;2024-01-15T02:05:47;98141.38;;;-0.34;100.00
27984;BME280;15317;50.360;8.726;2024-01-15T02:10:52;98132.66;;;-0.36;100.00
27984;BME280;15317;50.360;8.726;2024-01-15T02:15:56;98129.00;;;-0.35;100.00
27984;BME280;15317;50.360;8.726;2024-01-15T02:21:00;98137.72;;;-0.33;100.00
27984;BME280;15317;50.360;8.726;2024-01-15T02:26:05;98130.72;;;-0.46;100.00
27984;BME280;15317;50.360;8.726;2024-01-15T02:31:08;98128.06;;;-0.46;100.00
27984;BME280;15317;50.360;8.726;2024-01-15T02:36:12;98127.09;;;-0.45;100.00
27984;BME280;15317;50.360;8.726;2024-01-15T02:41:16;98122.97;;;-0.49;100.00
27984;BME280;15317;50.360;8.726;2024-01-15T02:46:20;98129.03;;;-0.58;100.00
27984;BME280;15317;50.360;8.726;2024-01-15T02:51:23;98132.44;;;-0.56;100.00
27984;BME280;15317;50.360;8.726;2024-01-15T02:56:27;98146.13;;;-0.60;100.00
27984;BME280;15317;50.360;8.726;2024-01-15T03:01:31;98138.00;;;-0.59;100.00
27984;BME280;15317;50.360;8.726;2024-01-15T03:06:34;98136.06;;;-0.57;100.00
27984;BME280;15317;50.360;8.726;2024-01-15T03:11:39;98147.81;;;-0.59;100.00
27984;BME280;15317;50.360;8.726;2024-01-15T03:16:42;98154.00;;;-0.59;100.00
27984;BME280;15317;50.360;8.726;2024-01-15T03:21:45;98156.19;;;-0.53;100.00
27984;BME280;15317;50.360;8.726;2024-01-15T03:26:50;98148.44;;;-0.56;100.00
27984;BME280;15317;50.360;8.726;2024-01-15T03:31:53;98147.72;;;-0.58;100.00
27984;BME280;15317;50.360;8.726;2024-01-15T03:36:56;98147.47;;;-0.55;100.00
27984;BME280;15317;50.360;8.726;2024-01-15T03:42:02;98145.78;;;-0.67;100.00
27984;BME280;15317;50.360;8.726;2024-01-15T03:47:06;98144.81;;;-0.66;100.00
27984;BME280;15317;50.360;8.726;2024-01-15T03:52:09;98138.75;;;-0.57;100.00
27984;BME280;15317;50.360;8.726;2024-01-15T03:57:14;98131.34;;;-0.53;100.00
27984;BME280;15317;50.360;8.726;2024-01-15T04:02:17;98127.13;;;-0.56;100.00
27984;BME280;15317;50.360;8.726;2024-01-15T04:07:20;98133.91;;;-0.63;100.00
27984;BME280;15317;50.360;8.726;2024-01-15T04:12:25;98133.75;;;-0.61;100.00
27984;BME280;15317;50.360;8.726;2024-01-15T04:17:28;98138.50;;;-0.65;100.00
27984;BME280;15317;50.360;8.726;2024-01-15T04:22:32;98125.28;;;-0.66;100.00
27984;BME280;15317;50.360;8.726;2024-01-15T04:27:36;98120.56;;;-0.74;100.00
27984;BME280;15317;50.360;8.726;2024-01-15T04:32:39;98123.25;;;-0.74;100.00
27984;BME280;15317;50.360;8.726;2024-01-15T04:37:43;98125.69;;;-0.71;100.00
27984;BME280;15317;50.360;8.726;2024-01-15T04:42:47;98130.50;;;-0.65;100.00
27984;BME280;15317;50.360;8.726;2024-01-15T04:47:50;98119.38;;;-0.70;100.00
27984;BME280;15317;50.360;8.726;2024-01-15T04:52:54;98125.78;;;-0.72;100.00
27984;BME280;15317;50.360;8.726;2024-01-15T04:57:58;98121.78;;;-0.67;100.00
27984;BME280;15317;50.360;8.726;2024-01-15T05:03:01;98111.34;;;-0.59;100.00
27984;BME280;15317;50.360;8.726;2024-01-15T05:08:05;98097.56;;;-0.64;100.00
27984;BME280;15317;50.360;8.726;2024-01-15T05:13:09;98101.56;;;-0.69;100.00
27984;BME280;15317;50.360;8.726;2024-01-15T05:18:13;98097.78;;;-0.67;100.00
27984;BME280;15317;50.360;8.726;2024-01-15T05:23:16;98110.66;;;-0.72;100.00
27984;BME280;15317;50.360;8.726;2024-01-15T05:28:20;98109.22;;;-0.76;100.00
27984;BME280;15317;50.360;8.726;2024-01-15T05:33:24;98102.75;;;-0.62;100.00
27984;BME280;15317;50.360;8.726;2024-01-15T05:38:27;98109.19;;;-0.65;100.00
27984;BME280;15317;50.360;8.726;2024-01-15T05:43:32;98102.63;;;-0.61;100.00
27984;BME280;15317;50.360;8.726;2024-01-15T05:48:35;98106.75;;;-0.57;100.00
27984;BME280;15317;50.360;8.726;2024-01-15T05:53:38;98113.28;;;-0.61;100.00
27984;BME280;15317;50.360;8.726;2024-01-15T05:58:46;98113.28;;;-0.61;100.00
27984;BME280;15317;50.360;8.726;2024-01-15T06:03:49;98106.88;;;-0.58;100.00
27984;BME280;15317;50.360;8.726;2024-01-15T06:08:52;98117.41;;;-0.57;100.00
27984;BME280;15317;50.360;8.726;2024-01-15T06:13:57;98114.13;;;-0.60;100.00
27984;BME280;15317;50.360;8.726;2024-01-15T06:19:00;98109.91;;;-0.63;100.00
27984;BME280;15317;50.360;8.726;2024-01-15T06:24:03;98116.22;;;-0.64;100.00
27984;BME280;15317;50.360;8.726;2024-01-15T06:29:08;98123.75;;;-0.69;100.00
27984;BME280;15317;50.360;8.726;2024-01-15T06:34:11;98111.84;;;-0.65;100.00
27984;BME280;15317;50.360;8.726;2024-01-15T06:39:15;98107.00;;;-0.71;100.00
27984;BME280;15317;50.360;8.726;2024-01-15T06:44:19;98107.00;;;-0.71;100.00
27984;BME280;15317;50.360;8.726;2024-01-15T06:49:23;98101.91;;;-0.74;100.00
27984;BME280;15317;50.360;8.726;2024-01-15T06:54:26;98092.72;;;-0.70;100.00
27984;BME280;15317;50.360;8.726;2024-01-15T06:59:31;98084.22;;;-0.75;100.00
27984;BME280;15317;50.360;8.726;2024-01-15T07:04:34;98087.38;;;-0.81;100.00
27984;BME280;15317;50.360;8.726;2024-01-15T07:09:37;98095.38;;;-0.81;100.00
27984;BME280;15317;50.360;8.726;2024-01-15T07:14:42;98100.72;;;-0.81;100.00
27984;BME280;15317;50.360;8.726;2024-01-15T07:19:46;98092.72;;;-0.70;100.00
27984;BME280;15317;50.360;8.726;2024-01-15T07:24:49;98093.91;;;-0.63;100.00
27984;BME280;15317;50.360;8.726;2024-01-15T07:29:54;98101.19;;;-0.65;100.00
27984;BME280;15317;50.360;8.726;2024-01-15T07:35:01;98111.13;;;-0.56;100.00
27984;BME280;15317;50.360;8.726;2024-01-15T07:40:06;98104.31;;;-0.49;100.00
27984;BME280;15317;50.360;8.726;2024-01-15T07:45:12;98097.97;;;-0.48;100.00
27984;BME280;15317;50.360;8.726;2024-01-15T07:50:15;98097.75;;;-0.45;100.00
27984;BME280;15317;50.360;8.726;2024-01-15T07:55:18;98108.56;;;-0.57;100.00
27984;BME280;15317;50.360;8.726;2024-01-15T08:00:23;98112.00;;;-1.00;100.00
27984;BME280;15317;50.360;8.726;2024-01-15T08:05:26;98103.03;;;-1.43;100.00
27984;BME280;15317;50.360;8.726;2024-01-15T08:10:30;98105.97;;;-1.70;100.00
27984;BME280;15317;50.360;8.726;2024-01-15T08:15:34;98108.63;;;-1.70;100.00
27984;BME280;15317;50.360;8.726;2024-01-15T08:20:37;98124.75;;;-1.72;100.00
27984;BME280;15317;50.360;8.726;2024-01-15T08:25:41;98104.44;;;-1.62;100.00
27984;BME280;15317;50.360;8.726;2024-01-15T08:30:45;98110.59;;;-1.61;100.00
27984;BME280;15317;50.360;8.726;2024-01-15T08:35:48;98106.41;;;-1.52;100.00
27984;BME280;15317;50.360;8.726;2024-01-15T08:40:52;98103.03;;;-1.43;100.00
27984;BME280;15317;50.360;8.726;2024-01-15T08:45:57;98097.06;;;-1.47;100.00
27984;BME280;15317;50.360;8.726;2024-01-15T08:51:01;98103.63;;;-1.51;100.00
27984;BME280;15317;50.360;8.726;2024-01-15T08:56:05;98118.59;;;-1.50;100.00
27984;BME280;15317;50.360;8.726;2024-01-15T09:01:10;98125.28;;;-1.44;100.00
27984;BME280;15317;50.360;8.726;2024-01-15T09:06:13;98118.75;;;-1.40;100.00
27984;BME280;15317;50.360;8.726;2024-01-15T09:11:16;98105.31;;;-1.39;100.00
27984;BME280;15317;50.360;8.726;2024-01-15T09:16:21;98108.97;;;-1.17;100.00
27984;BME280;15317;50.360;8.726;2024-01-15T09:21:24;98104.13;;;-1.01;100.00
27984;BME280;15317;50.360;8.726;2024-01-15T09:26:28;98108.22;;;-0.86;100.00
27984;BME280;15317;50.360;8.726;2024-01-15T09:31:32;98091.25;;;-0.74;100.00
27984;BME280;15317;50.360;8.726;2024-01-15T09:36:39;98077.41;;;-0.57;100.00
27984;BME280;15317;50.360;8.726;2024-01-15T09:41:43;98075.66;;;-0.35;100.00
27984;BME280;15317;50.360;8.726;2024-01-15T09:46:47;98070.81;;;-0.10;100.00
27984;BME280;15317;50.360;8.726;2024-01-15T09:51:52;98070.84;;;0.32;100.00
27984;BME280;15317;50.360;8.726;2024-01-15T09:57:10;98071.91;;;0.71;100.00
27984;BME280;15317;50.360;8.726;2024-01-15T10:02:14;98060.69;;;0.77;100.00
27984;BME280;15317;50.360;8.726;2024-01-15T10:07:21;98065.50;;;0.83;100.00
27984;BME280;15317;50.360;8.726;2024-01-15T10:12:24;98066.66;;;1.21;100.00
27984;BME280;15317;50.360;8.726;2024-01-15T10:17:30;98059.97;;;2.13;100.00
27984;BME280;15317;50.360;8.726;2024-01-15T10:22:34;98051.19;;;2.96;100.00
27984;BME280;15317;50.360;8.726;2024-01-15T10:27:40;98039.16;;;2.72;100.00
27984;BME280;15317;50.360;8.726;2024-01-15T10:32:57;98043.50;;;2.73;100.00
27984;BME280;15317;50.360;8.726;2024-01-15T10:38:01;98027.06;;;2.59;100.00
27984;BME280;15317;50.360;8.726;2024-01-15T10:43:05;98013.22;;;2.63;100.00
27984;BME280;15317;50.360;8.726;2024-01-15T10:48:10;98009.25;;;2.67;100.00
27984;BME280;15317;50.360;8.726;2024-01-15T10:53:15;98003.75;;;3.06;100.00
27984;BME280;15317;50.360;8.726;2024-01-15T10:58:18;98001.06;;;3.51;100.00
27984;BME280;15317;50.360;8.726;2024-01-15T11:03:24;97987.34;;;3.54;100.00
27984;BME280;15317;50.360;8.726;2024-01-15T11:08:29;97977.66;;;3.26;98.80
27984;BME280;15317;50.360;8.726;2024-01-15T11:13:40;97966.25;;;3.14;100.00
27984;BME280;15317;50.360;8.726;2024-01-15T11:19:02;97963.38;;;3.25;97.05
27984;BME280;15317;50.360;8.726;2024-01-15T11:24:08;97970.59;;;3.25;96.32
27984;BME280;15317;50.360;8.726;2024-01-15T11:29:28;97986.50;;;3.53;96.86
27984;BME280;15317;50.360;8.726;2024-01-15T11:34:53;97958.66;;;3.54;95.88
27984;BME280;15317;50.360;8.726;2024-01-15T11:40:02;97966.72;;;3.54;95.16
27984;BME280;15317;50.360;8.726;2024-01-15T11:45:07;97969.69;;;3.51;96.29
27984;BME280;15317;50.360;8.726;2024-01-15T11:50:11;97958.91;;;4.05;97.76
27984;BME280;15317;50.360;8.726;2024-01-15T11:55:19;97967.72;;;4.66;94.82
27984;BME280;15317;50.360;8.726;2024-01-15T12:00:23;97979.75;;;4.54;92.18
27984;BME280;15317;50.360;8.726;2024-01-15T12:05:27;97965.31;;;3.86;98.82
27984;BME280;15317;50.360;8.726;2024-01-15T12:10:31;97961.56;;;3.43;100.00
27984;BME280;15317;50.360;8.726;2024-01-15T12:15:35;97955.53;;;3.14;100.00
27984;BME280;15317;50.360;8.726;2024-01-15T12:20:40;97952.97;;;2.95;100.00
27984;BME280;15317;50.360;8.726;2024-01-15T12:25:44;97976.50;;;2.73;100.00
27984;BME280;15317;50.360;8.726;2024-01-15T12:30:48;97965.63;;;2.75;100.00
27984;BME280;15317;50.360;8.726;2024-01-15T12:35:54;97968.25;;;2.57;100.00
27984;BME280;15317;50.360;8.726;2024-01-15T12:40:58;97960.75;;;2.24;100.00
27984;BME280;15317;50.360;8.726;2024-01-15T12:46:03;97952.06;;;2.03;100.00
27984;BME280;15317;50.360;8.726;2024-01-15T12:51:07;97945.44;;;1.87;100.00
27984;BME280;15317;50.360;8.726;2024-01-15T12:56:10;97949.38;;;1.93;100.00
27984;BME280;15317;50.360;8.726;2024-01-15T13:01:14;97953.25;;;2.37;100.00
27984;BME280;15317;50.360;8.726;2024-01-15T13:06:18;97960.72;;;2.70;100.00
27984;BME280;15317;50.360;8.726;2024-01-15T13:11:22;97951.34;;;2.84;100.00
27984;BME280;15317;50.360;8.726;2024-01-15T13:16:25;97944.59;;;3.25;100.00
27984;BME280;15317;50.360;8.726;2024-01-15T13:21:31;97953.81;;;3.40;100.00
27984;BME280;15317;50.360;8.726;2024-01-15T13:26:35;97944.31;;;3.46;100.00
27984;BME280;15317;50.360;8.726;2024-01-15T13:31:38;97939.72;;;3.38;100.00
27984;BME280;15317;50.360;8.726;2024-01-15T13:36:43;97945.25;;;3.09;100.00
27984;BME280;15317;50.360;8.726;2024-01-15T13:41:47;97944.81;;;2.87;100.00
27984;BME280;15317;50.360;8.726;2024-01-15T13:46:50;97954.31;;;2.81;100.00
27984;BME280;15317;50.360;8.726;2024-01-15T13:51:55;97955.13;;;2.54;100.00
27984;BME280;15317;50.360;8.726;2024-01-15T13:56:59;97961.66;;;2.42;100.00
27984;BME280;15317;50.360;8.726;2024-01-15T14:02:03;97965.53;;;2.30;100.00
27984;BME280;15317;50.360;8.726;2024-01-15T14:07:08;97984.56;;;2.27;100.00
27984;BME280;15317;50.360;8.726;2024-01-15T14:12:11;97982.91;;;2.07;100.00
27984;BME280;15317;50.360;8.726;2024-01-15T14:17:14;97982.94;;;1.68;100.00
27984;BME280;15317;50.360;8.726;2024-01-15T14:22:19;97991.06;;;1.38;100.00
27984;BME280;15317;50.360;8.726;2024-01-15T14:27:22;97980.69;;;1.35;100.00
27984;BME280;15317;50.360;8.726;2024-01-15T14:32:25;98003.06;;;1.34;100.00
27984;BME280;15317;50.360;8.726;2024-01-15T14:37:30;97991.09;;;1.28;100.00
27984;BME280;15317;50.360;8.726;2024-01-15T14:42:34;98002.72;;;1.17;100.00
27984;BME280;15317;50.360;8.726;2024-01-15T14:47:37;98000.19;;;1.06;100.00
27984;BME280;15317;50.360;8.726;2024-01-15T14:52:42;97994.97;;;1.05;100.00
27984;BME280;15317;50.360;8.726;2024-01-15T14:57:46;98017.88;;;0.98;100.00
27984;BME280;15317;50.360;8.726;2024-01-15T15:02:50;98018.72;;;0.98;100.00
27984;BME280;15317;50.360;8.726;2024-01-15T15:07:54;98025.88;;;0.88;100.00
27984;BME280;15317;50.360;8.726;2024-01-15T15:12:57;98032.03;;;0.79;100.00
27984;BME280;15317;50.360;8.726;2024-01-15T15:18:00;98034.88;;;0.87;100.00
27984;BME280;15317;50.360;8.726;2024-01-15T15:23:05;98044.59;;;0.88;100.00
27984;BME280;15317;50.360;8.726;2024-01-15T15:28:10;98066.94;;;0.87;100.00
27984;BME280;15317;50.360;8.726;2024-01-15T15:33:13;98077.03;;;0.84;100.00
27984;BME280;15317;50.360;8.726;2024-01-15T15:38:19;98075.50;;;0.81;100.00
27984;BME280;15317;50.360;8.726;2024-01-15T15:43:24;98086.72;;;0.75;100.00
27984;BME280;15317;50.360;8.726;2024-01-15T15:48:27;98093.09;;;0.63;100.00
27984;BME280;15317;50.360;8.726;2024-01-15T15:53:32;98099.94;;;0.56;100.00
27984;BME280;15317;50.360;8.726;2024-01-15T15:58:35;98109.22;;;0.52;100.00
27984;BME280;15317;50.360;8.726;2024-01-15T16:03:38;98126.41;;;0.59;100.00
27984;BME280;15317;50.360;8.726;2024-01-15T16:08:43;98130.31;;;0.55;100.00
27984;BME280;15317;50.360;8.726;2024-01-15T16:13:46;98151.97;;;0.52;100.00
27984;BME280;15317;50.360;8.726;2024-01-15T16:18:49;98141.50;;;0.49;100.00
27984;BME280;15317;50.360;8.726;2024-01-15T16:24:14;98147.97;;;0.46;100.00
27984;BME280;15317;50.360;8.726;2024-01-15T16:29:30;98163.16;;;0.46;100.00
27984;BME280;15317;50.360;8.726;2024-01-15T16:34:34;98161.69;;;0.42;100.00
27984;BME280;15317;50.360;8.726;2024-01-15T16:39:38;98164.78;;;0.37;100.00
27984;BME280;15317;50.360;8.726;2024-01-15T16:44:42;98171.59;;;0.30;100.00
27984;BME280;15317;50.360;8.726;2024-01-15T16:49:45;98179.94;;;0.36;100.00
27984;BME280;15317;50.360;8.726;2024-01-15T16:54:50;98199.38;;;0.38;100.00
27984;BME280;15317;50.360;8.726;2024-01-15T16:59:53;98208.94;;;0.41;100.00
27984;BME280;15317;50.360;8.726;2024-01-15T17:04:56;98223.53;;;0.37;100.00
27984;BME280;15317;50.360;8.726;2024-01-15T17:10:01;98240.78;;;0.33;100.00
27984;BME280;15317;50.360;8.726;2024-01-15T17:15:05;98236.41;;;0.32;100.00
27984;BME280;15317;50.360;8.726;2024-01-15T17:20:09;98242.63;;;0.32;100.00
27984;BME280;15317;50.360;8.726;2024-01-15T17:25:14;98247.84;;;0.34;100.00
27984;BME280;15317;50.360;8.726;2024-01-15T17:30:17;98248.69;;;0.23;100.00
27984;BME280;15317;50.360;8.726;2024-01-15T17:35:20;98262.78;;;0.14;100.00
27984;BME280;15317;50.360;8.726;2024-01-15T17:40:25;98279.81;;;0.13;100.00
27984;BME280;15317;50.360;8.726;2024-01-15T17:45:28;98272.25;;;0.18;100.00
27984;BME280;15317;50.360;8.726;2024-01-15T17:50:31;98281.47;;;0.14;100.00
27984;BME280;15317;50.360;8.726;2024-01-15T17:55:36;98297.75;;;0.11;100.00
27984;BME280;15317;50.360;8.726;2024-01-15T18:00:39;98309.88;;;0.15;100.00
27984;BME280;15317;50.360;8.726;2024-01-15T18:05:43;98309.41;;;0.10;100.00
27984;BME280;15317;50.360;8.726;2024-01-15T18:10:48;98331.84;;;0.08;100.00
27984;BME280;15317;50.360;8.726;2024-01-15T18:15:55;98335.63;;;0.05;100.00
27984;BME280;15317;50.360;8.726;2024-01-15T18:20:59;98352.13;;;-0.01;100.00
27984;BME280;15317;50.360;8.726;2024-01-15T18:26:05;98354.19;;;0.07;100.00
27984;BME280;15317;50.360;8.726;2024-01-15T18:31:08;98360.00;;;0.00;100.00
27984;BME280;15317;50.360;8.726;2024-01-15T18:36:11;98373.00;;;0.05;100.00
27984;BME280;15317;50.360;8.726;2024-01-15T18:41:22;98385.38;;;0.06;100.00
27984;BME280;15317;50.360;8.726;2024-01-15T18:46:26;98393.38;;;0.06;100.00
27984;BME280;15317;50.360;8.726;2024-01-15T18:51:31;98403.31;;;-0.07;100.00
27984;BME280;15317;50.360;8.726;2024-01-15T18:56:40;98407.66;;;-0.06;100.00
27984;BME280;15317;50.360;8.726;2024-01-15T19:01:44;98412.31;;;-0.08;100.00
27984;BME280;15317;50.360;8.726;2024-01-15T19:06:47;98411.56;;;-0.10;100.00
27984;BME280;15317;50.360;8.726;2024-01-15T19:11:52;98416.53;;;-0.06;100.00
27984;BME280;15317;50.360;8.726;2024-01-15T19:16:55;98428.06;;;-0.05;100.00
27984;BME280;15317;50.360;8.726;2024-01-15T19:21:58;98420.06;;;-0.05;100.00
27984;BME280;15317;50.360;8.726;2024-01-15T19:27:03;98423.19;;;-0.22;100.00
27984;BME280;15317;50.360;8.726;2024-01-15T19:32:07;98421.00;;;-0.28;100.00
27984;BME280;15317;50.360;8.726;2024-01-15T19:37:10;98428.75;;;-0.25;100.00
27984;BME280;15317;50.360;8.726;2024-01-15T19:42:14;98428.16;;;-0.29;100.00
27984;BME280;15317;50.360;8.726;2024-01-15T19:47:17;98414.22;;;-0.21;100.00
27984;BME280;15317;50.360;8.726;2024-01-15T19:52:21;98430.47;;;-0.24;100.00
27984;BME280;15317;50.360;8.726;2024-01-15T19:57:25;98409.84;;;-0.11;100.00
27984;BME280;15317;50.360;8.726;2024-01-15T20:02:28;98429.03;;;-0.17;100.00
27984;BME280;15317;50.360;8.726;2024-01-15T20:07:32;98433.38;;;-0.16;100.00
27984;BME280;15317;50.360;8.726;2024-01-15T20:12:36;98431.91;;;-0.20;100.00
27984;BME280;15317;50.360;8.726;2024-01-15T20:17:40;98432.75;;;-0.20;100.00
27984;BME280;15317;50.360;8.726;2024-01-15T20:22:43;98427.09;;;-0.15;100.00
27984;BME280;15317;50.360;8.726;2024-01-15T20:27:48;98434.13;;;-0.14;100.00
27984;BME280;15317;50.360;8.726;2024-01-15T20:32:51;98438.72;;;-0.16;100.00
27984;BME280;15317;50.360;8.726;2024-01-15T20:37:54;98444.06;;;-0.16;100.00
27984;BME280;15317;50.360;8.726;2024-01-15T20:43:00;98455.00;;;-0.08;100.00
27984;BME280;15317;50.360;8.726;2024-01-15T20:48:06;98473.94;;;0.00;100.00
27984;BME280;15317;50.360;8.726;2024-01-15T20:53:09;98465.69;;;0.03;100.00
27984;BME280;15317;50.360;8.726;2024-01-15T20:58:20;98482.56;;;0.04;100.00
27984;BME280;15317;50.360;8.726;2024-01-15T21:03:24;98493.22;;;0.04;100.00
27984;BME280;15317;50.360;8.726;2024-01-15T21:08:27;98496.75;;;0.15;100.00
27984;BME280;15317;50.360;8.726;2024-01-15T21:13:32;98512.31;;;0.21;100.00
27984;BME280;15317;50.360;8.726;2024-01-15T21:18:36;98509.66;;;0.32;100.00
27984;BME280;15317;50.360;8.726;2024-01-15T21:23:39;98522.16;;;0.32;100.00
27984;BME280;15317;50.360;8.726;2024-01-15T21:28:44;98529.09;;;0.46;100.00
27984;BME280;15317;50.360;8.726;2024-01-15T21:33:47;98524.22;;;0.28;100.00
27984;BME280;15317;50.360;8.726;2024-01-15T21:38:51;98512.56;;;0.18;100.00
27984;BME280;15317;50.360;8.726;2024-01-15T21:43:56;98528.31;;;0.21;100.00
27984;BME280;15317;50.360;8.726;2024-01-15T21:48:59;98524.31;;;0.16;100.00
27984;BME280;15317;50.360;8.726;2024-01-15T21:54:03;98548.00;;;0.20;100.00
27984;BME280;15317;50.360;8.726;2024-01-15T21:59:08;98542.91;;;0.28;100.00
27984;BME280;15317;50.360;8.726;2024-01-15T22:04:11;98553.84;;;0.36;100.00
27984;BME280;15317;50.360;8.726;2024-01-15T22:09:15;98547.06;;;0.32;100.00
27984;BME280;15317;50.360;8.726;2024-01-15T22:14:20;98567.41;;;0.22;100.00
27984;BME280;15317;50.360;8.726;2024-01-15T22:19:24;98585.41;;;0.20;100.00
27984;BME280;15317;50.360;8.726;2024-01-15T22:24:27;98599.84;;;0.29;100.00
27984;BME280;15317;50.360;8.726;2024-01-15T22:29:32;98609.94;;;0.36;100.00
27984;BME280;15317;50.360;8.726;2024-01-15T22:34:35;98617.00;;;0.37;100.00
27984;BME280;15317;50.360;8.726;2024-01-15T22:39:38;98622.41;;;0.25;100.00
27984;BME280;15317;50.360;8.726;2024-01-15T22:44:43;98635.38;;;0.18;100.00
27984;BME280;15317;50.360;8.726;2024-01-15T22:49:46;98637.09;;;0.19;100.00
27984;BME280;15317;50.360;8.726;2024-01-15T22:54:49;98648.34;;;0.12;100.00
27984;BME280;15317;50.360;8.726;2024-01-15T22:59:57;98650.66;;;0.16;100.00
27984;BME280;15317;50.360;8.726;2024-01-15T23:05:01;98650.16;;;0.11;100.00
27984;BME280;15317;50.360;8.726;2024-01-15T23:10:06;98656.47;;;0.10;100.00
27984;BME280;15317;50.360;8.726;2024-01-15T23:15:11;98657.41;;;0.09;100.00
27984;BME280;15317;50.360;8.726;2024-01-15T23:20:15;98656.69;;;0.07;100.00
27984;BME280;15317;50.360;8.726;2024-01-15T23:25:18;98668.97;;;0.10;100.00
27984;BME280;15317;50.360;8.726;2024-01-15T23:30:23;98669.81;;;0.10;100.00
27984;BME280;15317;50.360;8.726;2024-01-15T23:35:26;98666.19;;;0.11;100.00
27984;BME280;15317;50.360;8.726;2024-01-15T23:40:29;98675.59;;;0.04;100.00
27984;BME280;15317;50.360;8.726;2024-01-15T23:45:33;98674.53;;;0.07;100.00
27984;BME280;15317;50.360;8.726;2024-01-15T23:50:36;98687.53;;;0.11;100.00
27984;BME280;15317;50.360;8.726;2024-01-15T23:55:40;98671.50;;;0.11;100.00
